createdAt,value
2023-06-17T00:00:48.017Z,21.40
2023-06-17T00:03:14.842Z,21.40
2023-06-17T00:05:42.624Z,21.40
2023-06-17T00:08:10.626Z,21.40
2023-06-17T00:10:37.483Z,21.30
2023-06-17T00:13:04.933Z,21.20
2023-06-17T00:15:34.198Z,21.10
2023-06-17T00:18:02.281Z,21.10
2023-06-17T00:20:30.440Z,21.10
2023-06-17T00:22:57.330Z,21.10
2023-06-17T00:25:24.136Z,21.10
2023-06-17T00:27:50.944Z,21.10
2023-06-17T00:30:18.020Z,21.10
2023-06-17T00:32:45.102Z,21.10
2023-06-17T00:35:11.952Z,21.10
2023-06-17T00:37:38.722Z,21.20
2023-06-17T00:40:09.608Z,21.10
2023-06-17T00:42:37.425Z,21.10
2023-06-17T00:45:04.854Z,21.10
2023-06-17T00:47:32.166Z,21.10
2023-06-17T00:49:59.596Z,21.10
2023-06-17T00:52:41.158Z,21.10
2023-06-17T00:55:10.335Z,21.10
2023-06-17T00:57:38.708Z,21.10
2023-06-17T01:00:11.175Z,21.10
2023-06-17T01:02:41.883Z,21.00
2023-06-17T01:05:14.180Z,21.00
2023-06-17T01:08:20.898Z,21.00
2023-06-17T01:10:59.268Z,21.00
2023-06-17T01:13:28.299Z,21.00
2023-06-17T01:15:58.682Z,21.00
2023-06-17T01:18:26.742Z,20.90
2023-06-17T01:20:55.633Z,20.80
2023-06-17T01:23:25.608Z,20.80
2023-06-17T01:25:53.353Z,20.80
2023-06-17T01:28:21.727Z,20.80
2023-06-17T01:30:49.274Z,20.80
2023-06-17T01:33:19.021Z,20.80
2023-06-17T01:35:52.531Z,20.80
2023-06-17T01:38:25.429Z,20.80
2023-06-17T01:41:00.031Z,20.80
2023-06-17T01:43:28.532Z,20.80
2023-06-17T01:45:56.661Z,20.80
2023-06-17T01:48:23.922Z,20.80
2023-06-17T01:50:50.769Z,20.80
2023-06-17T01:53:17.505Z,20.80
2023-06-17T01:55:44.228Z,20.80
2023-06-17T01:58:11.452Z,20.80
2023-06-17T02:00:38.195Z,20.80
2023-06-17T02:03:04.956Z,20.60
2023-06-17T02:05:31.818Z,20.70
2023-06-17T02:08:00.560Z,20.80
2023-06-17T02:10:27.907Z,20.70
2023-06-17T02:12:54.696Z,20.80
2023-06-17T02:15:21.415Z,20.80
2023-06-17T02:17:48.184Z,20.70
2023-06-17T02:20:14.959Z,20.70
2023-06-17T02:22:41.660Z,20.70
2023-06-17T02:25:08.736Z,20.70
2023-06-17T02:27:35.609Z,20.70
2023-06-17T02:30:02.382Z,20.70
2023-06-17T02:32:29.598Z,20.60
2023-06-17T02:34:58.574Z,20.60
2023-06-17T02:37:26.011Z,20.70
2023-06-17T02:39:52.827Z,20.60
2023-06-17T02:42:19.714Z,20.60
2023-06-17T02:44:46.379Z,20.60
2023-06-17T02:47:13.427Z,20.60
2023-06-17T02:49:40.108Z,20.60
2023-06-17T02:52:07.156Z,20.60
2023-06-17T02:54:33.907Z,20.50
2023-06-17T02:57:00.617Z,20.50
2023-06-17T02:59:27.509Z,20.50
2023-06-17T03:01:54.262Z,20.50
2023-06-17T03:04:21.864Z,20.50
2023-06-17T03:06:51.755Z,20.50
2023-06-17T03:09:19.080Z,20.50
2023-06-17T03:11:45.857Z,20.50
2023-06-17T03:14:13.578Z,20.50
2023-06-17T03:16:41.694Z,20.40
2023-06-17T03:19:08.687Z,20.40
2023-06-17T03:21:40.546Z,20.50
2023-06-17T03:24:07.696Z,20.50
2023-06-17T03:26:34.406Z,20.40
2023-06-17T03:29:01.209Z,20.40
2023-06-17T03:31:29.289Z,20.40
2023-06-17T03:33:56.059Z,20.40
2023-06-17T03:36:26.289Z,20.40
2023-06-17T03:38:53.141Z,20.40
2023-06-17T03:41:19.908Z,20.30
2023-06-17T03:43:46.599Z,20.30
2023-06-17T03:46:13.408Z,20.30
2023-06-17T03:48:40.625Z,20.30
2023-06-17T03:51:07.495Z,20.30
2023-06-17T03:53:34.229Z,20.30
2023-06-17T03:56:01.186Z,20.30
2023-06-17T03:58:29.356Z,20.30
2023-06-17T04:00:57.190Z,20.30
2023-06-17T04:03:26.232Z,20.30
2023-06-17T04:05:53.595Z,20.30
2023-06-17T04:08:20.611Z,20.30
2023-06-17T04:10:50.821Z,20.30
2023-06-17T04:13:17.794Z,20.20
2023-06-17T04:15:46.244Z,20.20
2023-06-17T04:18:13.076Z,20.20
2023-06-17T04:20:40.212Z,20.20
2023-06-17T04:23:07.099Z,20.20
2023-06-17T04:25:33.896Z,20.20
2023-06-17T04:28:02.538Z,20.20
2023-06-17T04:30:29.346Z,20.10
2023-06-17T04:32:56.723Z,20.10
2023-06-17T04:35:24.328Z,20.10
2023-06-17T04:37:54.886Z,20.10
2023-06-17T04:40:25.339Z,20.10
2023-06-17T04:42:52.964Z,20.10
2023-06-17T04:45:19.840Z,20.10
2023-06-17T04:47:46.983Z,20.10
2023-06-17T04:50:17.826Z,20.10
2023-06-17T04:52:48.676Z,20.10
2023-06-17T04:55:15.621Z,20.10
2023-06-17T04:57:43.493Z,20.10
2023-06-17T05:00:15.024Z,20.10
2023-06-17T05:02:41.771Z,20.10
2023-06-17T05:05:09.043Z,20.10
2023-06-17T05:07:35.913Z,20.10
2023-06-17T05:10:02.916Z,20.10
2023-06-17T05:12:29.601Z,20.20
2023-06-17T05:14:56.327Z,20.20
2023-06-17T05:17:23.090Z,20.20
2023-06-17T05:19:50.799Z,20.20
2023-06-17T05:22:17.792Z,20.20
2023-06-17T05:24:44.634Z,20.20
2023-06-17T05:27:11.439Z,20.30
2023-06-17T05:29:40.149Z,20.30
2023-06-17T05:32:07.599Z,20.30
2023-06-17T05:34:34.521Z,20.30
2023-06-17T05:37:01.443Z,20.30
2023-06-17T05:39:28.245Z,20.30
2023-06-17T05:41:55.169Z,20.40
2023-06-17T05:44:22.134Z,20.40
2023-06-17T05:46:48.841Z,20.40
2023-06-17T05:49:16.841Z,20.40
2023-06-17T05:51:43.686Z,20.40
2023-06-17T05:54:10.451Z,20.40
2023-06-17T05:56:37.152Z,20.40
2023-06-17T05:59:03.837Z,20.40
2023-06-17T06:01:30.612Z,20.40
2023-06-17T06:03:57.402Z,20.40
2023-06-17T06:06:24.127Z,20.40
2023-06-17T06:08:51.324Z,20.40
2023-06-17T06:11:18.349Z,20.50
2023-06-17T06:13:45.098Z,20.50
2023-06-17T06:16:11.846Z,20.60
2023-06-17T06:18:38.613Z,20.60
2023-06-17T06:21:06.775Z,20.60
2023-06-17T06:23:34.497Z,20.60
2023-06-17T06:26:01.467Z,20.50
2023-06-17T06:28:28.349Z,20.50
2023-06-17T06:30:55.277Z,20.50
2023-06-17T06:33:23.884Z,20.50
2023-06-17T06:35:50.718Z,20.50
2023-06-17T06:38:17.420Z,20.60
2023-06-17T06:40:44.112Z,20.60
2023-06-17T06:43:10.899Z,20.60
2023-06-17T06:45:37.633Z,20.60
2023-06-17T06:48:04.773Z,20.60
2023-06-17T06:50:31.629Z,20.60
2023-06-17T06:52:58.347Z,20.70
2023-06-17T06:55:25.295Z,20.80
2023-06-17T06:57:51.979Z,20.80
2023-06-17T07:00:19.920Z,20.80
2023-06-17T07:02:46.899Z,20.80
2023-06-17T07:05:13.903Z,20.70
2023-06-17T07:07:40.735Z,20.60
2023-06-17T07:10:08.039Z,20.60
2023-06-17T07:12:34.833Z,20.60
2023-06-17T07:15:01.534Z,20.60
2023-06-17T07:17:28.303Z,20.60
2023-06-17T07:19:56.271Z,20.70
2023-06-17T07:22:23.092Z,20.80
2023-06-17T07:24:49.838Z,20.80
2023-06-17T07:27:17.612Z,20.90
2023-06-17T07:29:44.315Z,21.00
2023-06-17T07:32:11.886Z,21.00
2023-06-17T07:34:38.655Z,21.10
2023-06-17T07:37:05.576Z,21.10
2023-06-17T07:39:32.310Z,21.10
2023-06-17T07:41:59.037Z,21.00
2023-06-17T07:44:25.796Z,20.90
2023-06-17T07:46:52.607Z,21.00
2023-06-17T07:49:19.417Z,20.90
2023-06-17T07:51:46.144Z,21.00
2023-06-17T07:54:12.835Z,21.10
2023-06-17T07:56:39.521Z,21.20
2023-06-17T07:59:06.288Z,21.30
2023-06-17T08:01:34.138Z,21.40
2023-06-17T08:04:00.975Z,21.50
2023-06-17T08:06:30.096Z,21.60
2023-06-17T08:08:57.931Z,21.60
2023-06-17T08:11:24.635Z,21.70
2023-06-17T08:13:51.368Z,21.90
2023-06-17T08:16:18.307Z,21.90
2023-06-17T08:18:45.303Z,22.00
2023-06-17T08:21:12.084Z,22.00
2023-06-17T08:23:38.822Z,22.00
2023-06-17T08:26:06.211Z,22.00
2023-06-17T08:28:32.895Z,22.00
2023-06-17T08:30:59.655Z,22.00
2023-06-17T08:33:26.644Z,22.10
2023-06-17T08:35:53.926Z,22.10
2023-06-17T08:38:20.762Z,22.00
2023-06-17T08:40:47.629Z,22.00
2023-06-17T08:43:18.896Z,22.10
2023-06-17T08:45:50.033Z,22.20
2023-06-17T08:48:17.115Z,22.30
2023-06-17T08:50:46.128Z,22.30
2023-06-17T08:53:15.159Z,22.30
2023-06-17T08:55:43.913Z,22.40
2023-06-17T08:58:11.261Z,22.50
2023-06-17T09:00:38.639Z,22.50
2023-06-17T09:03:09.428Z,22.50
2023-06-17T09:05:36.866Z,22.60
2023-06-17T09:08:03.919Z,22.70
2023-06-17T09:10:43.382Z,22.80
2023-06-17T09:13:10.883Z,22.90
2023-06-17T09:15:44.648Z,22.90
2023-06-17T09:18:11.744Z,22.90
2023-06-17T09:20:38.635Z,22.90
2023-06-17T09:23:05.590Z,22.80
2023-06-17T09:25:36.194Z,22.90
2023-06-17T09:28:16.305Z,22.90
2023-06-17T09:30:44.847Z,22.90
2023-06-17T09:33:22.951Z,23.00
2023-06-17T09:36:00.062Z,23.00
2023-06-17T09:38:28.949Z,23.00
2023-06-17T09:40:57.788Z,23.00
2023-06-17T09:43:30.187Z,23.00
2023-06-17T09:46:15.392Z,23.00
2023-06-17T09:48:43.831Z,23.10
2023-06-17T09:51:13.372Z,23.20
2023-06-17T09:53:42.323Z,23.20
2023-06-17T09:56:12.304Z,23.30
2023-06-17T09:58:42.758Z,23.40
2023-06-17T10:01:12.451Z,23.50
2023-06-17T10:03:41.083Z,23.40
2023-06-17T10:06:17.448Z,23.30
2023-06-17T10:08:45.062Z,23.30
2023-06-17T10:11:18.623Z,23.30
2023-06-17T10:13:51.182Z,23.40
2023-06-17T10:16:21.990Z,23.50
2023-06-17T10:18:52.197Z,23.40
2023-06-17T10:21:21.887Z,23.50
2023-06-17T10:23:49.341Z,23.50
2023-06-17T10:26:16.508Z,23.50
2023-06-17T10:28:45.780Z,23.50
2023-06-17T10:31:28.161Z,23.50
2023-06-17T10:33:56.193Z,23.60
2023-06-17T10:36:24.808Z,23.50
2023-06-17T10:38:59.921Z,23.60
2023-06-17T10:41:53.420Z,23.70
2023-06-17T10:44:36.250Z,23.70
2023-06-17T10:47:21.380Z,23.70
2023-06-17T10:49:50.160Z,23.90
2023-06-17T10:52:17.868Z,23.90
2023-06-17T10:54:56.252Z,24.00
2023-06-17T10:57:32.829Z,24.00
2023-06-17T11:00:13.132Z,23.90
2023-06-17T11:02:40.884Z,23.90
2023-06-17T11:05:09.585Z,23.90
2023-06-17T11:07:36.680Z,23.80
2023-06-17T11:10:04.489Z,23.90
2023-06-17T11:12:31.436Z,23.90
2023-06-17T11:15:01.100Z,23.90
2023-06-17T11:17:28.272Z,23.90
2023-06-17T11:19:55.162Z,24.00
2023-06-17T11:22:23.118Z,24.10
2023-06-17T11:24:49.861Z,24.10
2023-06-17T11:27:17.155Z,24.20
2023-06-17T11:29:44.599Z,24.10
2023-06-17T11:32:11.885Z,24.10
2023-06-17T11:34:41.663Z,24.10
2023-06-17T11:37:12.057Z,24.10
2023-06-17T11:39:39.814Z,24.20
2023-06-17T11:42:08.200Z,24.40
2023-06-17T11:44:36.558Z,24.40
2023-06-17T11:47:05.019Z,24.50
2023-06-17T11:49:32.076Z,24.40
2023-06-17T11:52:10.575Z,24.40
2023-06-17T11:54:46.658Z,24.50
2023-06-17T11:57:25.501Z,24.70
2023-06-17T11:59:52.975Z,24.70
2023-06-17T12:02:20.276Z,24.70
2023-06-17T12:04:47.897Z,24.60
2023-06-17T12:07:15.152Z,24.60
2023-06-17T12:09:55.621Z,24.60
2023-06-17T12:12:33.978Z,24.60
2023-06-17T12:15:14.789Z,24.60
2023-06-17T12:17:45.193Z,24.60
2023-06-17T12:20:16.915Z,24.70
2023-06-17T12:22:48.281Z,24.70
2023-06-17T12:25:15.222Z,24.80
2023-06-17T12:27:43.873Z,24.80
2023-06-17T12:30:18.666Z,25.00
2023-06-17T12:32:45.906Z,24.90
2023-06-17T12:35:15.256Z,24.90
2023-06-17T12:37:42.776Z,24.80
2023-06-17T12:40:10.472Z,24.80
2023-06-17T12:42:37.933Z,24.90
2023-06-17T12:45:05.930Z,25.00
2023-06-17T12:47:33.133Z,25.00
2023-06-17T12:50:00.136Z,25.10
2023-06-17T12:52:27.201Z,25.30
2023-06-17T12:54:59.232Z,25.50
2023-06-17T12:57:30.235Z,25.60
2023-06-17T12:59:57.258Z,25.60
2023-06-17T13:02:24.029Z,25.50
2023-06-17T13:04:50.861Z,25.50
2023-06-17T13:07:18.032Z,25.50
2023-06-17T13:09:44.836Z,25.60
2023-06-17T13:12:12.355Z,25.60
2023-06-17T13:14:39.204Z,25.80
2023-06-17T13:17:06.638Z,25.80
2023-06-17T13:19:34.846Z,25.80
2023-06-17T13:22:06.420Z,25.90
2023-06-17T13:24:33.529Z,26.00
2023-06-17T13:27:00.618Z,26.10
2023-06-17T13:29:27.569Z,26.10
2023-06-17T13:31:56.417Z,26.30
2023-06-17T13:34:23.453Z,26.40
2023-06-17T13:36:50.205Z,26.40
2023-06-17T13:39:16.936Z,26.30
2023-06-17T13:41:44.733Z,26.20
2023-06-17T13:44:14.017Z,26.20
2023-06-17T13:46:42.700Z,26.10
2023-06-17T13:49:11.320Z,26.10
2023-06-17T13:51:38.084Z,26.00
2023-06-17T13:54:04.906Z,26.30
2023-06-17T13:56:31.723Z,26.50
2023-06-17T13:58:58.549Z,26.60
2023-06-17T14:01:25.433Z,26.70
2023-06-17T14:03:52.947Z,26.80
2023-06-17T14:06:21.925Z,26.80
2023-06-17T14:08:49.200Z,26.90
2023-06-17T14:11:16.078Z,27.00
2023-06-17T14:13:44.444Z,27.10
2023-06-17T14:16:12.226Z,27.00
2023-06-17T14:18:39.317Z,26.70
2023-06-17T14:21:06.132Z,26.60
2023-06-17T14:23:32.911Z,26.60
2023-06-17T14:25:59.660Z,26.60
2023-06-17T14:28:26.478Z,26.80
2023-06-17T14:30:53.321Z,26.80
2023-06-17T14:33:20.103Z,26.80
2023-06-17T14:35:46.854Z,26.90
2023-06-17T14:38:13.585Z,27.00
2023-06-17T14:40:40.353Z,27.00
2023-06-17T14:43:08.210Z,27.10
2023-06-17T14:45:35.249Z,27.10
2023-06-17T14:48:02.136Z,27.10
2023-06-17T14:50:29.131Z,27.30
2023-06-17T14:52:56.324Z,27.20
2023-06-17T14:55:23.139Z,27.10
2023-06-17T14:57:52.689Z,27.10
2023-06-17T15:00:21.098Z,27.20
2023-06-17T15:02:56.078Z,27.40
2023-06-17T15:05:23.798Z,27.60
2023-06-17T15:07:50.873Z,27.70
2023-06-17T15:10:17.840Z,27.60
2023-06-17T15:12:45.356Z,27.40
2023-06-17T15:15:13.797Z,27.30
2023-06-17T15:17:41.891Z,27.30
2023-06-17T15:20:09.314Z,27.50
2023-06-17T15:22:36.120Z,27.90
2023-06-17T15:25:05.602Z,27.80
2023-06-17T15:27:32.385Z,28.10
2023-06-17T15:29:59.180Z,28.10
2023-06-17T15:32:26.018Z,28.20
2023-06-17T15:34:53.403Z,28.10
2023-06-17T15:37:20.205Z,28.20
2023-06-17T15:39:47.001Z,28.10
2023-06-17T15:42:14.769Z,28.20
2023-06-17T15:44:41.564Z,28.30
2023-06-17T15:47:08.403Z,28.50
2023-06-17T15:49:35.990Z,28.60
2023-06-17T15:52:03.955Z,28.70
2023-06-17T15:54:30.837Z,28.80
2023-06-17T15:56:57.634Z,28.60
2023-06-17T15:59:26.546Z,28.70
2023-06-17T16:01:53.878Z,28.70
2023-06-17T16:04:39.904Z,28.90
2023-06-17T16:07:09.988Z,28.70
2023-06-17T16:09:39.186Z,29.00
2023-06-17T16:12:06.791Z,29.50
2023-06-17T16:14:34.117Z,29.80
2023-06-17T16:17:05.125Z,29.80
2023-06-17T16:19:33.135Z,30.00
2023-06-17T16:22:00.959Z,30.00
2023-06-17T16:24:27.732Z,29.90
2023-06-17T16:26:58.166Z,30.10
2023-06-17T16:29:25.039Z,30.20
2023-06-17T16:32:04.077Z,30.60
2023-06-17T16:34:34.968Z,30.80
2023-06-17T16:37:01.839Z,30.30
2023-06-17T16:39:28.715Z,30.30
2023-06-17T16:41:56.154Z,30.50
2023-06-17T16:44:22.930Z,30.80
2023-06-17T16:46:49.923Z,31.00
2023-06-17T16:49:17.034Z,31.00
2023-06-17T16:51:44.577Z,31.40
2023-06-17T16:54:12.176Z,31.80
2023-06-17T16:56:39.047Z,32.10
2023-06-17T16:59:05.971Z,32.00
2023-06-17T17:01:32.867Z,31.40
2023-06-17T17:04:03.435Z,31.20
2023-06-17T17:06:30.162Z,31.10
2023-06-17T17:08:56.900Z,30.90
2023-06-17T17:11:23.652Z,30.80
2023-06-17T17:13:50.695Z,30.90
2023-06-17T17:16:18.215Z,31.30
2023-06-17T17:18:45.019Z,31.60
2023-06-17T17:21:11.872Z,31.60
2023-06-17T17:23:41.604Z,31.20
2023-06-17T17:26:09.292Z,30.80
2023-06-17T17:28:36.284Z,30.70
2023-06-17T17:31:03.908Z,31.40
2023-06-17T17:33:30.855Z,31.90
2023-06-17T17:35:57.604Z,31.60
2023-06-17T17:38:24.681Z,31.30
2023-06-17T17:40:51.612Z,31.20
2023-06-17T17:43:18.373Z,30.90
2023-06-17T17:45:45.245Z,30.90
2023-06-17T17:48:12.030Z,31.20
2023-06-17T17:50:38.773Z,31.50
2023-06-17T17:53:06.031Z,31.50
2023-06-17T17:55:34.308Z,31.60
2023-06-17T17:58:01.366Z,31.60
2023-06-17T18:00:28.149Z,31.70
2023-06-17T18:02:55.071Z,31.60
2023-06-17T18:05:21.836Z,31.60
2023-06-17T18:07:49.893Z,31.30
2023-06-17T18:10:17.007Z,31.30
2023-06-17T18:12:43.690Z,31.20
2023-06-17T18:15:11.425Z,31.20
2023-06-17T18:17:38.296Z,31.00
2023-06-17T18:20:07.021Z,30.80
2023-06-17T18:22:33.756Z,30.70
2023-06-17T18:25:00.483Z,30.50
2023-06-17T18:27:35.835Z,30.40
2023-06-17T18:30:04.502Z,30.20
2023-06-17T18:32:31.679Z,30.00
2023-06-17T18:34:58.536Z,29.90
2023-06-17T18:37:25.715Z,29.80
2023-06-17T18:39:52.684Z,29.40
2023-06-17T18:42:19.450Z,29.20
2023-06-17T18:44:46.524Z,29.00
2023-06-17T18:47:13.408Z,28.90
2023-06-17T18:49:40.425Z,28.70
2023-06-17T18:52:08.008Z,28.60
2023-06-17T18:54:34.712Z,28.30
2023-06-17T18:57:01.470Z,28.20
2023-06-17T18:59:28.190Z,28.00
2023-06-17T19:01:55.134Z,28.00
2023-06-17T19:04:21.925Z,27.90
2023-06-17T19:06:50.264Z,28.00
2023-06-17T19:09:17.055Z,27.90
2023-06-17T19:11:43.816Z,27.80
2023-06-17T19:14:11.056Z,27.60
2023-06-17T19:16:38.933Z,27.60
2023-06-17T19:19:05.858Z,27.40
2023-06-17T19:21:32.660Z,27.40
2023-06-17T19:23:59.390Z,27.40
2023-06-17T19:26:26.793Z,27.30
2023-06-17T19:28:53.681Z,27.30
2023-06-17T19:31:22.391Z,27.10
2023-06-17T19:33:49.262Z,26.90
2023-06-17T19:36:16.514Z,26.80
2023-06-17T19:38:43.450Z,26.80
2023-06-17T19:41:10.689Z,26.70
2023-06-17T19:43:37.462Z,26.70
2023-06-17T19:46:04.740Z,26.60
2023-06-17T19:48:31.648Z,26.50
2023-06-17T19:51:00.426Z,26.40
2023-06-17T19:53:27.272Z,26.30
2023-06-17T19:55:54.020Z,26.20
2023-06-17T19:58:22.078Z,26.10
2023-06-17T20:00:49.165Z,26.10
2023-06-17T20:03:16.664Z,26.10
2023-06-17T20:05:46.132Z,26.00
2023-06-17T20:08:13.598Z,25.90
2023-06-17T20:10:40.607Z,25.80
2023-06-17T20:13:07.642Z,25.80
2023-06-17T20:15:35.270Z,25.70
2023-06-17T20:18:02.195Z,25.60
2023-06-17T20:20:29.024Z,25.70
2023-06-17T20:22:55.927Z,25.80
2023-06-17T20:25:23.557Z,25.80
2023-06-17T20:27:50.373Z,25.80
2023-06-17T20:30:17.567Z,25.60
2023-06-17T20:32:44.580Z,25.60
2023-06-17T20:35:11.437Z,25.60
2023-06-17T20:37:38.204Z,25.60
2023-06-17T20:40:05.815Z,25.70
2023-06-17T20:42:32.639Z,25.80
2023-06-17T20:44:59.644Z,25.80
2023-06-17T20:47:26.870Z,25.70
2023-06-17T20:49:53.650Z,25.70
2023-06-17T20:52:20.411Z,25.80
2023-06-17T20:54:47.125Z,25.80
2023-06-17T20:57:13.895Z,25.90
2023-06-17T20:59:40.668Z,25.90
2023-06-17T21:02:07.531Z,26.00
2023-06-17T21:04:34.462Z,26.00
2023-06-17T21:07:01.540Z,26.10
2023-06-17T21:09:28.731Z,26.10
2023-06-17T21:11:55.529Z,26.10
2023-06-17T21:14:22.327Z,26.10
2023-06-17T21:16:49.202Z,26.00
2023-06-17T21:19:15.988Z,26.00
2023-06-17T21:21:42.828Z,26.00
2023-06-17T21:24:09.677Z,26.00
2023-06-17T21:26:36.523Z,25.90
2023-06-17T21:29:03.398Z,25.90
2023-06-17T21:31:30.258Z,25.90
2023-06-17T21:33:57.148Z,25.80
2023-06-17T21:36:24.047Z,25.80
2023-06-17T21:38:50.931Z,25.70
2023-06-17T21:41:17.756Z,25.60
2023-06-17T21:43:44.627Z,25.60
2023-06-17T21:46:11.454Z,25.50
2023-06-17T21:48:41.362Z,25.50
2023-06-17T21:51:09.390Z,25.50
2023-06-17T21:53:36.344Z,25.50
2023-06-17T21:56:03.123Z,25.50
2023-06-17T21:58:29.866Z,25.40
2023-06-17T22:00:56.544Z,25.40
2023-06-17T22:03:24.007Z,25.40
2023-06-17T22:05:51.075Z,25.30
2023-06-17T22:08:20.313Z,25.30
2023-06-17T22:10:51.423Z,25.30
2023-06-17T22:13:18.184Z,25.20
2023-06-17T22:15:44.931Z,25.20
2023-06-17T22:18:11.849Z,25.20
2023-06-17T22:20:38.603Z,25.10
2023-06-17T22:23:05.464Z,25.10
2023-06-17T22:25:32.274Z,25.00
2023-06-17T22:27:59.477Z,25.00
2023-06-17T22:30:26.347Z,25.00
2023-06-17T22:32:53.733Z,24.90
2023-06-17T22:35:21.416Z,24.90
2023-06-17T22:37:48.277Z,24.90
2023-06-17T22:40:15.096Z,24.80
2023-06-17T22:42:41.908Z,24.80
2023-06-17T22:45:08.812Z,24.70
2023-06-17T22:47:35.929Z,24.70
2023-06-17T22:50:04.046Z,24.70
2023-06-17T22:52:30.948Z,24.60
2023-06-17T22:54:57.834Z,24.60
2023-06-17T22:57:24.624Z,24.60
2023-06-17T22:59:51.350Z,24.50
2023-06-17T23:02:18.149Z,24.50
2023-06-17T23:04:44.995Z,24.40
2023-06-17T23:07:11.695Z,24.40
2023-06-17T23:09:38.466Z,24.30
2023-06-17T23:12:05.736Z,24.30
2023-06-17T23:14:32.397Z,24.20
2023-06-17T23:16:59.403Z,24.20
2023-06-17T23:19:32.146Z,24.20
2023-06-17T23:22:00.472Z,24.20
2023-06-17T23:24:27.906Z,24.20
2023-06-17T23:26:54.860Z,24.10
2023-06-17T23:29:21.574Z,24.10
2023-06-17T23:31:48.343Z,24.10
2023-06-17T23:34:15.370Z,24.10
2023-06-17T23:36:43.931Z,24.00
2023-06-17T23:39:11.093Z,24.00
2023-06-17T23:41:37.970Z,24.00
2023-06-17T23:44:04.808Z,24.00
2023-06-17T23:46:31.925Z,23.90
2023-06-17T23:48:58.872Z,23.90
2023-06-17T23:51:25.867Z,23.90
2023-06-17T23:53:52.614Z,23.90
2023-06-17T23:56:19.650Z,23.80
2023-06-17T23:58:46.463Z,23.80
